»·PEaware :: N660WC MBPV-TQPF

N660WC :: MBPV-TQPF

FLIGHT INFORMATION

Flight Status: Arrived
Operator: Privately registered:
United States
More flights under this callsign
Pilot: John H. (7647)
Aircraft: CESSNA T210 TURBO CENTURION
(T210)
More flights by this aircraft type
Origin: MBPV Providenciales Intl
Turks and Caicos Islands
Destination: TQPF Wallblake
Anguilla
More flights between these airports :: More routes between these airports
Route: CONCH GUYRO
File this flight plan on PilotEdge
Remarks:
Altitude:
(Current/Filed)
3,000ft
Speed:
(Current/Filed)
160kts
Departed: 09-Jun-18 04:59 AM
Arrived: 09-Jun-18 08:47 AM
Distance/Time
Traveled:
562nm/3:48
Distance/Time
To Go:
Arrived

Flight Plot

Page will automatically refresh every two minutes.

Flight plan parsing failed; only flown route is shown


Map Options




Map Legend


Flown Route
Filed Route
Departure Airport
Arrival Airport
Navaid (VOR, NDB)
Fix

Horizontal Profiles

Position Reports

Time Latitude Longitude Heading Altitude Ground
Speed
09-Jun-18 04:54 21.775511 -72.267230 39 30ft 0kts
09-Jun-18 04:55 21.775503 -72.267399 216 30ft 6kts
09-Jun-18 04:56 21.774880 -72.268584 269 30ft 14kts
09-Jun-18 04:57 21.773835 -72.270732 93 30ft 0kts
09-Jun-18 04:58 21.773831 -72.270553 92 30ft 15kts
09-Jun-18 04:59 21.773393 -72.250347 86 574ft 107kts
09-Jun-18 05:00 21.777498 -72.211787 80 1299ft 134kts
09-Jun-18 05:01 21.759707 -72.180311 134 2263ft 124kts
09-Jun-18 05:02 21.737563 -72.153532 113 3012ft 131kts
09-Jun-18 05:03 21.722536 -72.114169 106 3001ft 146kts
09-Jun-18 05:04 21.708518 -72.072560 108 3003ft 148kts
09-Jun-18 05:05 21.694398 -72.030307 106 2999ft 153kts
09-Jun-18 05:06 21.680189 -71.987855 107 3000ft 149kts
09-Jun-18 05:07 21.666233 -71.946201 107 3002ft 147kts
09-Jun-18 05:08 21.652339 -71.904675 108 3014ft 147kts
09-Jun-18 05:09 21.638286 -71.862700 107 2999ft 150kts
09-Jun-18 05:10 21.623988 -71.820444 108 2999ft 150kts
09-Jun-18 05:11 21.609805 -71.777939 106 3010ft 150kts
09-Jun-18 05:12 21.595609 -71.735403 111 2975ft 152kts
09-Jun-18 05:13 21.581284 -71.692832 111 2985ft 151kts
09-Jun-18 05:14 21.569322 -71.657512 106 2987ft 150kts
09-Jun-18 05:15 21.555368 -71.615105 109 3000ft 151kts
09-Jun-18 05:16 21.538365 -71.565611 108 2997ft 150kts
09-Jun-18 05:17 21.526504 -71.530431 113 3007ft 151kts
09-Jun-18 05:18 21.512023 -71.487828 110 3007ft 152kts
09-Jun-18 05:19 21.497505 -71.445094 109 2992ft 151kts
09-Jun-18 05:20 21.483133 -71.402653 109 3000ft 152kts
09-Jun-18 05:21 21.468834 -71.360445 108 3000ft 149kts
09-Jun-18 05:22 21.454602 -71.318526 108 3014ft 149kts
09-Jun-18 05:23 21.437920 -71.269505 108 3002ft 149kts
09-Jun-18 05:24 21.423664 -71.227558 110 3008ft 149kts
09-Jun-18 05:25 21.411779 -71.192592 109 2994ft 149kts
09-Jun-18 05:26 21.397568 -71.150908 108 2991ft 149kts
09-Jun-18 05:27 21.383294 -71.109052 109 3005ft 149kts
09-Jun-18 05:28 21.368947 -71.067046 109 2991ft 149kts
09-Jun-18 05:29 21.354647 -71.025205 109 2991ft 149kts
09-Jun-18 05:30 21.340270 -70.983232 109 3009ft 150kts
09-Jun-18 05:31 21.325966 -70.941329 109 2998ft 149kts
09-Jun-18 05:32 21.311536 -70.899390 109 3007ft 150kts
09-Jun-18 05:33 21.297149 -70.857436 109 3008ft 150kts
09-Jun-18 05:34 21.282751 -70.815467 107 2992ft 149kts
09-Jun-18 05:35 21.268379 -70.773608 108 3009ft 151kts
09-Jun-18 05:36 21.253863 -70.731474 109 3011ft 150kts
09-Jun-18 05:37 21.239259 -70.689132 109 2992ft 152kts
09-Jun-18 05:38 21.224762 -70.647014 110 2995ft 152kts
09-Jun-18 05:39 21.210123 -70.604530 109 3005ft 151kts
09-Jun-18 05:40 21.195299 -70.561428 111 3010ft 157kts
09-Jun-18 05:41 21.179892 -70.517105 109 3008ft 159kts
09-Jun-18 05:42 21.164568 -70.472633 112 2989ft 159kts
09-Jun-18 05:43 21.149200 -70.428316 111 2994ft 158kts
09-Jun-18 05:44 21.133834 -70.384017 112 2994ft 158kts
09-Jun-18 05:45 21.118493 -70.339720 110 3005ft 158kts
09-Jun-18 05:46 21.103084 -70.295448 112 3005ft 158kts
09-Jun-18 05:47 21.087685 -70.251075 111 3000ft 159kts
09-Jun-18 05:48 21.072228 -70.206687 110 3016ft 160kts
09-Jun-18 05:49 21.056611 -70.161907 110 2991ft 161kts
09-Jun-18 05:50 21.041158 -70.117465 111 3013ft 159kts
09-Jun-18 05:51 21.025659 -70.073152 112 3002ft 158kts
09-Jun-18 05:52 21.010216 -70.028885 110 2999ft 159kts
09-Jun-18 05:53 20.996589 -69.990004 112 2998ft 158kts
09-Jun-18 05:54 20.981192 -69.945886 111 3003ft 159kts
09-Jun-18 05:55 20.965811 -69.901996 113 2996ft 159kts
09-Jun-18 05:56 20.950376 -69.857947 111 3013ft 158kts
09-Jun-18 05:57 20.934912 -69.813848 110 2995ft 158kts
09-Jun-18 05:58 20.919409 -69.769686 109 2989ft 158kts
09-Jun-18 05:59 20.903919 -69.725611 112 2996ft 159kts
09-Jun-18 06:00 20.896593 -69.704670 112 3009ft 159kts
09-Jun-18 06:01 20.883350 -69.667082 111 3001ft 159kts
09-Jun-18 06:02 20.867870 -69.622992 112 3011ft 159kts
09-Jun-18 06:03 20.852183 -69.578700 108 2996ft 157kts
09-Jun-18 06:04 20.836658 -69.534881 111 3008ft 158kts
09-Jun-18 06:05 20.821172 -69.490860 112 2995ft 160kts
09-Jun-18 06:06 20.805426 -69.446401 108 3008ft 159kts
09-Jun-18 06:07 20.789834 -69.402245 110 3009ft 158kts
09-Jun-18 06:08 20.774825 -69.360181 109 3058ft 154kts
09-Jun-18 06:09 20.759651 -69.317257 110 3056ft 154kts
09-Jun-18 06:10 20.744514 -69.274446 110 3059ft 154kts
09-Jun-18 06:11 20.729331 -69.231622 109 3062ft 155kts
09-Jun-18 06:12 20.714020 -69.188550 110 3034ft 156kts
09-Jun-18 06:13 20.698628 -69.145488 111 3039ft 154kts
09-Jun-18 06:14 20.683335 -69.102456 109 3027ft 155kts
09-Jun-18 06:15 20.668685 -69.061269 108 3033ft 154kts
09-Jun-18 06:16 20.653476 -69.018792 110 3028ft 153kts
09-Jun-18 06:17 20.638265 -68.976239 110 3032ft 153kts
09-Jun-18 06:18 20.623554 -68.934908 110 3027ft 153kts
09-Jun-18 06:19 20.608463 -68.892548 110 3038ft 153kts
09-Jun-18 06:20 20.593079 -68.849963 108 3037ft 154kts
09-Jun-18 06:21 20.577934 -68.807414 109 3022ft 152kts
09-Jun-18 06:22 20.562681 -68.765021 108 3029ft 153kts
09-Jun-18 06:23 20.547523 -68.722677 109 3021ft 152kts
09-Jun-18 06:24 20.532281 -68.680481 109 3030ft 152kts
09-Jun-18 06:25 20.517064 -68.638219 109 3037ft 153kts
09-Jun-18 06:26 20.501774 -68.595755 110 3037ft 153kts
09-Jun-18 06:27 20.486532 -68.553285 108 3025ft 153kts
09-Jun-18 06:28 20.471169 -68.510817 109 3022ft 153kts
09-Jun-18 06:29 20.455950 -68.468502 109 3025ft 152kts
09-Jun-18 06:30 20.440672 -68.426225 110 3019ft 152kts
09-Jun-18 06:31 20.425487 -68.384221 109 3017ft 152kts
09-Jun-18 06:32 20.410406 -68.342464 110 3031ft 152kts
09-Jun-18 06:33 20.395046 -68.300121 110 3029ft 153kts
09-Jun-18 06:34 20.379700 -68.257647 110 3025ft 154kts
09-Jun-18 06:35 20.364322 -68.215374 109 3029ft 152kts
09-Jun-18 06:36 20.349012 -68.173131 110 3016ft 153kts
09-Jun-18 06:37 20.333648 -68.130912 110 3029ft 152kts
09-Jun-18 06:38 20.318267 -68.088584 110 3033ft 154kts
09-Jun-18 06:39 20.302720 -68.045953 110 3018ft 153kts
09-Jun-18 06:40 20.287375 -68.003757 110 3023ft 152kts
09-Jun-18 06:41 20.272074 -67.961722 111 3031ft 152kts
09-Jun-18 06:42 20.256641 -67.919655 110 3016ft 153kts
09-Jun-18 06:43 20.241208 -67.877342 110 3050ft 153kts
09-Jun-18 06:44 20.224725 -67.835147 114 3034ft 154kts
09-Jun-18 06:45 20.207806 -67.793273 110 3027ft 152kts
09-Jun-18 06:46 20.191262 -67.752298 109 3027ft 148kts
09-Jun-18 06:47 20.175038 -67.711960 110 3028ft 148kts
09-Jun-18 06:48 20.158777 -67.671621 109 3027ft 148kts
09-Jun-18 06:49 20.142476 -67.631296 109 3027ft 148kts
09-Jun-18 06:50 20.126160 -67.590915 109 3027ft 148kts
09-Jun-18 06:51 20.109871 -67.550681 109 3032ft 148kts
09-Jun-18 06:52 20.093539 -67.510339 109 3024ft 148kts
09-Jun-18 06:53 20.077226 -67.470067 109 3027ft 148kts
09-Jun-18 06:54 20.060939 -67.429914 109 3026ft 148kts
09-Jun-18 06:55 20.044643 -67.389759 109 3026ft 148kts
09-Jun-18 06:56 20.028308 -67.349570 110 3023ft 148kts
09-Jun-18 06:57 20.011993 -67.309382 109 3030ft 149kts
09-Jun-18 06:58 19.995474 -67.268788 110 3034ft 149kts
09-Jun-18 06:59 19.979083 -67.228505 110 3029ft 149kts
09-Jun-18 07:00 19.962575 -67.188021 109 3029ft 149kts
09-Jun-18 07:01 19.946059 -67.147474 109 3030ft 148kts
09-Jun-18 07:02 19.929677 -67.107335 110 3026ft 149kts
09-Jun-18 07:03 19.913232 -67.067054 109 3029ft 149kts
09-Jun-18 07:04 19.896929 -67.027161 109 3028ft 148kts
09-Jun-18 07:05 19.880681 -66.987459 109 3023ft 149kts
09-Jun-18 07:06 19.864228 -66.947243 110 3025ft 148kts
09-Jun-18 07:07 19.847795 -66.907099 110 3031ft 148kts
09-Jun-18 07:08 19.831266 -66.866744 110 3030ft 149kts
09-Jun-18 07:09 19.814722 -66.826509 109 3030ft 148kts
09-Jun-18 07:10 19.798334 -66.786486 109 3028ft 148kts
09-Jun-18 07:11 19.781859 -66.746424 110 3026ft 148kts
09-Jun-18 07:12 19.765520 -66.706470 111 3022ft 148kts
09-Jun-18 07:13 19.749032 -66.666544 110 3028ft 148kts
09-Jun-18 07:14 19.732648 -66.626765 109 3028ft 148kts
09-Jun-18 07:15 19.716297 -66.586836 111 3044ft 149kts
09-Jun-18 07:16 19.699709 -66.546847 112 3032ft 149kts
09-Jun-18 07:17 19.683033 -66.506278 114 3026ft 150kts
09-Jun-18 07:18 19.666139 -66.465563 113 3024ft 149kts
09-Jun-18 07:19 19.649532 -66.425265 113 3025ft 149kts
09-Jun-18 07:20 19.632836 -66.385122 113 3022ft 149kts
09-Jun-18 07:21 19.616423 -66.345194 113 3030ft 149kts
09-Jun-18 07:22 19.600174 -66.306040 114 3030ft 149kts
09-Jun-18 07:23 19.583493 -66.265836 112 3046ft 148kts
09-Jun-18 07:24 19.566752 -66.225735 111 3010ft 149kts
09-Jun-18 07:25 19.550033 -66.185294 114 3033ft 149kts
09-Jun-18 07:26 19.533109 -66.144648 113 3029ft 150kts
09-Jun-18 07:27 19.516385 -66.104227 113 3023ft 149kts
09-Jun-18 07:28 19.499682 -66.064094 112 3026ft 149kts
09-Jun-18 07:29 19.482980 -66.023979 113 3023ft 149kts
09-Jun-18 07:30 19.466227 -65.983726 114 3015ft 149kts
09-Jun-18 07:31 19.449452 -65.943557 113 3017ft 148kts
09-Jun-18 07:32 19.432786 -65.903524 113 3030ft 150kts
09-Jun-18 07:33 19.415983 -65.863319 112 3030ft 149kts
09-Jun-18 07:34 19.399254 -65.823307 112 3031ft 148kts
09-Jun-18 07:35 19.385145 -65.789743 110 3027ft 149kts
09-Jun-18 07:36 19.368381 -65.749505 110 3027ft 150kts
09-Jun-18 07:37 19.351491 -65.709146 110 3027ft 149kts
09-Jun-18 07:38 19.331831 -65.662220 110 3027ft 150kts
09-Jun-18 07:39 19.314920 -65.621900 111 3025ft 150kts
09-Jun-18 07:40 19.297984 -65.581548 110 3027ft 150kts
09-Jun-18 07:41 19.281058 -65.541255 110 3029ft 150kts
09-Jun-18 07:42 19.264135 -65.500987 110 3027ft 149kts
09-Jun-18 07:43 19.247205 -65.460730 110 3027ft 149kts
09-Jun-18 07:44 19.230285 -65.420506 110 3027ft 149kts
09-Jun-18 07:45 19.213522 -65.380339 114 3024ft 148kts
09-Jun-18 07:46 19.199570 -65.347534 114 3026ft 146kts
09-Jun-18 07:47 19.182948 -65.308196 114 3029ft 147kts
09-Jun-18 07:48 19.166258 -65.268663 114 3034ft 147kts
09-Jun-18 07:49 19.149515 -65.229044 114 3027ft 147kts
09-Jun-18 07:50 19.132771 -65.189413 114 3026ft 147kts
09-Jun-18 07:51 19.116112 -65.150011 114 3027ft 147kts
09-Jun-18 07:52 19.099368 -65.110464 114 3027ft 147kts
09-Jun-18 07:53 19.082642 -65.070968 114 3026ft 146kts
09-Jun-18 07:54 19.065925 -65.031554 114 3027ft 147kts
09-Jun-18 07:55 19.049222 -64.992156 114 3028ft 147kts
09-Jun-18 07:56 19.032537 -64.952800 113 3028ft 147kts
09-Jun-18 07:57 19.015752 -64.913335 114 3028ft 147kts
09-Jun-18 07:58 18.998990 -64.873871 114 3022ft 147kts
09-Jun-18 07:59 18.982201 -64.834417 114 3027ft 147kts
09-Jun-18 08:00 18.962578 -64.788458 113 3050ft 149kts
09-Jun-18 08:01 18.948209 -64.754579 113 3034ft 156kts
09-Jun-18 08:02 18.930599 -64.713159 113 3056ft 153kts
09-Jun-18 08:03 18.913008 -64.672018 115 3084ft 151kts
09-Jun-18 08:04 18.895206 -64.630588 109 3063ft 157kts
09-Jun-18 08:05 18.878176 -64.590454 118 3002ft 159kts
09-Jun-18 08:06 18.860323 -64.548684 113 2974ft 153kts
09-Jun-18 08:07 18.842864 -64.507727 113 2986ft 154kts
09-Jun-18 08:08 18.825408 -64.466879 111 2961ft 155kts
09-Jun-18 08:09 18.807279 -64.425024 114 2853ft 163kts
09-Jun-18 08:10 18.788416 -64.380825 114 2382ft 165kts
09-Jun-18 08:11 18.769539 -64.336378 114 1980ft 159kts
09-Jun-18 08:12 18.751691 -64.295127 112 2019ft 155kts
09-Jun-18 08:13 18.733846 -64.253956 116 2009ft 153kts
09-Jun-18 08:14 18.716251 -64.212885 117 2015ft 153kts
09-Jun-18 08:15 18.698874 -64.172256 113 2193ft 144kts
09-Jun-18 08:16 18.683555 -64.135983 106 2826ft 131kts
09-Jun-18 08:17 18.669085 -64.101621 113 3513ft 125kts
09-Jun-18 08:18 18.654007 -64.068286 118 4134ft 125kts
09-Jun-18 08:19 18.639424 -64.035151 114 4892ft 126kts
09-Jun-18 08:20 18.623252 -63.997997 115 5052ft 149kts
09-Jun-18 08:21 18.604849 -63.956715 115 4998ft 156kts
09-Jun-18 08:22 18.586489 -63.915197 110 5016ft 158kts
09-Jun-18 08:23 18.568218 -63.872779 119 4973ft 160kts
09-Jun-18 08:24 18.549320 -63.830902 115 4986ft 160kts
09-Jun-18 08:25 18.531140 -63.789090 114 4999ft 154kts
09-Jun-18 08:26 18.513027 -63.748316 113 4771ft 162kts
09-Jun-18 08:27 18.493410 -63.703893 113 4073ft 168kts
09-Jun-18 08:28 18.473778 -63.659461 113 3359ft 168kts
09-Jun-18 08:29 18.454598 -63.616070 113 2995ft 154kts
09-Jun-18 08:30 18.436164 -63.574348 113 2521ft 164kts
09-Jun-18 08:31 18.417015 -63.531022 113 1996ft 157kts
09-Jun-18 08:32 18.399199 -63.490921 114 2000ft 147kts
09-Jun-18 08:33 18.381990 -63.452082 114 1999ft 146kts
09-Jun-18 08:34 18.364789 -63.413290 113 1999ft 146kts
09-Jun-18 08:35 18.347648 -63.374627 113 1993ft 146kts
09-Jun-18 08:36 18.330523 -63.336143 113 2005ft 146kts
09-Jun-18 08:37 18.314284 -63.299574 113 1886ft 136kts
09-Jun-18 08:38 18.298320 -63.263641 113 1432ft 144kts
09-Jun-18 08:39 18.283514 -63.230451 113 1076ft 102kts
09-Jun-18 08:40 18.271730 -63.203899 113 696ft 93kts
09-Jun-18 08:41 18.261194 -63.180004 110 667ft 105kts
09-Jun-18 08:42 18.247624 -63.149486 111 705ft 121kts
09-Jun-18 08:43 18.232623 -63.117114 125 696ft 127kts
09-Jun-18 08:44 18.207545 -63.099391 140 677ft 93kts
09-Jun-18 08:45 18.204068 -63.080714 79 451ft 77kts
09-Jun-18 08:46 18.204881 -63.060183 91 129ft 66kts
09-Jun-18 08:47 18.205257 -63.053240 355 108ft 7kts
09-Jun-18 08:48 18.206133 -63.052816 179 107ft 0kts
09-Jun-18 08:49 18.206133 -63.052816 179 107ft 0kts
09-Jun-18 08:50 18.206133 -63.052816 179 107ft 0kts
09-Jun-18 08:51 18.206133 -63.052816 179 107ft 0kts
09-Jun-18 08:52 18.206133 -63.052816 179 107ft 0kts
09-Jun-18 08:53 18.206133 -63.052816 179 107ft 0kts
09-Jun-18 08:54 18.206133 -63.052816 179 107ft 0kts
09-Jun-18 08:55 18.206133 -63.052816 179 107ft 0kts
09-Jun-18 08:56 18.206133 -63.052816 179 107ft 0kts
09-Jun-18 08:57 18.206133 -63.052816 179 107ft 0kts
09-Jun-18 08:58 18.206133 -63.052816 179 107ft 0kts
09-Jun-18 08:59 18.206133 -63.052816 179 107ft 0kts
09-Jun-18 09:00 18.206133 -63.052816 179 107ft 0kts
09-Jun-18 09:01 18.206133 -63.052816 179 107ft 0kts
09-Jun-18 09:02 18.206133 -63.052816 179 107ft 0kts

Navigation Log

Ident Type
Flight plan parsing failed, navigation log unavailable